Time;durP1;ratioP1;P1;durP2;ratioP2;P2;SDS_P1;SDS_P2;PMS_P1;PMS_P2;Temp;Humidity;BMP_temperature;BMP_pressure;BME280_temperature;BME280_humidity;BME280_pressure;Samples;Min_cycle;Max_cycle;Signal;HPM_P1;HPM_P2
2021/05/21 00:03:46;;;;;;;1.88;1.50;;;13.00;99.90;;;;;;10462206;28;20047;-61
2021/05/21 00:08:48;;;;;;;3.10;1.25;;;13.00;99.90;;;;;;10463820;28;20047;-59
2021/05/21 00:13:50;;;;;;;1.40;1.10;;;13.00;99.90;;;;;;10462806;28;20385;-60
2021/05/21 00:18:52;;;;;;;4.82;1.27;;;13.00;99.90;;;;;;10463007;28;20047;-60
2021/05/21 00:23:54;;;;;;;4.50;0.88;;;13.00;99.90;;;;;;10462640;28;20041;-61
2021/05/21 00:28:56;;;;;;;3.97;1.40;;;13.00;99.90;;;;;;10462744;28;20052;-60
2021/05/21 00:34:00;;;;;;;1.23;1.08;;;12.90;99.90;;;;;;10461759;28;20503;-60
2021/05/21 00:39:03;;;;;;;1.08;0.98;;;13.00;99.90;;;;;;10462186;28;20096;-60
2021/05/21 00:44:05;;;;;;;5.68;1.13;;;12.90;99.90;;;;;;10462139;28;20037;-61
2021/05/21 00:49:07;;;;;;;1.67;1.00;;;13.00;99.90;;;;;;10461919;28;20049;-60
2021/05/21 00:54:10;;;;;;;2.67;1.08;;;13.00;99.90;;;;;;10461728;28;20055;-63
2021/05/21 00:59:12;;;;;;;2.63;1.13;;;12.90;99.90;;;;;;10461368;28;20481;-61
2021/05/21 01:04:14;;;;;;;1.92;0.80;;;13.00;99.90;;;;;;10476535;28;20040;-60
2021/05/21 01:09:16;;;;;;;3.38;1.15;;;13.00;99.90;;;;;;10461420;28;20041;-60
2021/05/21 01:14:18;;;;;;;1.65;0.90;;;13.00;99.90;;;;;;10461186;28;20095;-61
2021/05/21 01:19:20;;;;;;;1.70;1.17;;;13.00;99.90;;;;;;10460709;28;20393;-61
2021/05/21 01:24:22;;;;;;;1.65;1.02;;;13.00;99.90;;;;;;10460526;28;20127;-61
2021/05/21 01:29:24;;;;;;;1.13;0.85;;;13.10;99.90;;;;;;10460415;28;20049;-60
2021/05/21 01:34:26;;;;;;;1.52;0.88;;;13.00;99.90;;;;;;10459984;28;20481;-62
2021/05/21 01:39:35;;;;;;;5.50;0.90;;;13.10;99.90;;;;;;10459793;28;20047;-60
2021/05/21 01:44:39;;;;;;;1.10;0.95;;;13.00;99.90;;;;;;10459953;28;20048;-60
2021/05/21 01:49:41;;;;;;;3.15;1.50;;;13.10;99.90;;;;;;10458974;28;20045;-61
2021/05/21 01:54:43;;;;;;;2.55;1.10;;;13.10;99.90;;;;;;10459214;28;20090;-61
2021/05/21 01:59:45;;;;;;;3.28;1.05;;;13.00;99.90;;;;;;10459327;28;20051;-60
2021/05/21 02:04:47;;;;;;;3.90;1.15;;;12.90;99.90;;;;;;10458774;28;20047;-59
2021/05/21 02:10:00;;;;;;;1.88;0.90;;;12.90;99.90;;;;;;10459109;28;20063;-59
2021/05/21 02:15:08;;;;;;;2.33;1.40;;;12.90;99.90;;;;;;10458276;28;20405;-61
2021/05/21 02:20:13;;;;;;;2.15;1.48;;;12.80;99.90;;;;;;10458002;28;20048;-61
2021/05/21 02:25:16;;;;;;;2.15;0.98;;;12.90;99.90;;;;;;10458093;28;20168;-60
2021/05/21 02:30:18;;;;;;;2.13;1.02;;;12.80;99.90;;;;;;10458072;28;20040;-60
2021/05/21 02:35:20;;;;;;;1.25;0.90;;;12.80;99.90;;;;;;10457720;28;20359;-60
2021/05/21 02:40:22;;;;;;;8.77;1.20;;;12.90;99.90;;;;;;10457698;28;20041;-61
2021/05/21 02:45:24;;;;;;;8.05;2.63;;;12.90;99.90;;;;;;10457623;28;20036;-60
2021/05/21 02:50:26;;;;;;;9.35;2.88;;;12.60;99.90;;;;;;10457310;28;20037;-60
2021/05/21 02:55:28;;;;;;;15.85;3.70;;;12.50;99.90;;;;;;10457042;28;20041;-61
2021/05/21 03:00:30;;;;;;;14.70;3.90;;;12.40;99.90;;;;;;10457490;28;20036;-60
2021/05/21 03:05:32;;;;;;;13.40;3.30;;;12.40;99.90;;;;;;10456722;28;20131;-61
2021/05/21 03:10:34;;;;;;;19.23;4.25;;;12.30;99.90;;;;;;10457194;28;20052;-61
2021/05/21 03:15:36;;;;;;;16.73;5.00;;;12.30;99.90;;;;;;10456596;28;20072;-59
2021/05/21 03:20:39;;;;;;;14.70;4.28;;;12.20;99.90;;;;;;10456466;28;20401;-61
2021/05/21 03:25:42;;;;;;;19.13;4.50;;;12.10;99.90;;;;;;10456175;28;20048;-63
2021/05/21 03:30:44;;;;;;;21.67;4.22;;;12.00;99.90;;;;;;10461073;28;20041;-60
2021/05/21 03:35:47;;;;;;;22.02;3.50;;;12.00;99.90;;;;;;10464302;28;20044;-60
2021/05/21 03:40:48;;;;;;;19.35;4.60;;;12.10;99.90;;;;;;10464578;28;20068;-61
2021/05/21 03:45:50;;;;;;;21.65;5.07;;;12.00;99.90;;;;;;10462909;28;20045;-60
2021/05/21 03:50:52;;;;;;;13.23;3.78;;;12.00;99.90;;;;;;10464175;28;20051;-61
2021/05/21 03:55:54;;;;;;;21.92;4.50;;;12.00;99.90;;;;;;10463758;28;20045;-61
2021/05/21 04:00:56;;;;;;;13.93;4.18;;;11.90;99.90;;;;;;10479287;28;20045;-61
2021/05/21 04:05:58;;;;;;;13.52;3.47;;;12.00;99.90;;;;;;10463593;28;20389;-61
2021/05/21 04:11:00;;;;;;;16.35;3.53;;;12.00;99.90;;;;;;10463796;28;20045;-60
2021/05/21 04:16:02;;;;;;;13.77;3.72;;;12.00;99.90;;;;;;10478465;28;20049;-60
2021/05/21 04:21:04;;;;;;;18.35;4.43;;;11.80;99.90;;;;;;10463150;28;20045;-61
2021/05/21 04:26:06;;;;;;;14.32;4.68;;;11.90;99.90;;;;;;10462776;28;20469;-61
2021/05/21 04:31:08;;;;;;;15.15;4.55;;;11.90;99.90;;;;;;10462695;28;20048;-61
2021/05/21 04:36:10;;;;;;;18.00;5.00;;;11.90;99.90;;;;;;10462515;28;20068;-62
2021/05/21 04:41:13;;;;;;;22.08;5.38;;;11.90;99.90;;;;;;10461678;28;20055;-60
2021/05/21 04:46:15;;;;;;;14.77;4.40;;;11.80;99.90;;;;;;10462402;28;20120;-61
2021/05/21 04:51:17;;;;;;;11.52;3.80;;;11.80;99.90;;;;;;10477243;28;20041;-62
2021/05/21 04:56:19;;;;;;;22.23;5.95;;;11.80;99.90;;;;;;10462086;28;20045;-60
2021/05/21 05:01:21;;;;;;;17.98;4.18;;;11.80;99.90;;;;;;10461436;28;20478;-60
2021/05/21 05:06:23;;;;;;;12.85;4.32;;;11.80;99.90;;;;;;10461311;28;20049;-64
2021/05/21 05:11:25;;;;;;;13.32;4.57;;;11.90;99.90;;;;;;10461104;28;20417;-61
2021/05/21 05:16:27;;;;;;;16.88;4.70;;;11.90;99.90;;;;;;10460569;28;20045;-61
2021/05/21 05:21:33;;;;;;;17.40;5.18;;;11.80;99.90;;;;;;10459557;28;20047;-59
2021/05/21 05:26:35;;;;;;;16.15;3.75;;;11.80;99.90;;;;;;10460812;28;20048;-61
2021/05/21 05:31:40;;;;;;;18.63;5.05;;;11.90;99.90;;;;;;10460153;28;20456;-60
2021/05/21 05:36:42;;;;;;;10.77;3.13;;;11.80;99.90;;;;;;10459877;28;20680;-61
2021/05/21 05:41:44;;;;;;;13.13;3.38;;;11.80;99.90;;;;;;10459879;28;20076;-60
2021/05/21 05:46:46;;;;;;;17.83;3.30;;;11.90;99.90;;;;;;10459571;28;20420;-61
2021/05/21 05:51:48;;;;;;;11.57;2.92;;;11.80;99.90;;;;;;10458555;28;20392;-60
2021/05/21 05:56:50;;;;;;;13.48;2.83;;;11.80;99.90;;;;;;10459308;28;20044;-60
2021/05/21 06:01:52;;;;;;;21.63;5.47;;;11.80;99.90;;;;;;10458996;28;20583;-61
2021/05/21 06:06:54;;;;;;;15.00;3.78;;;11.80;99.90;;;;;;10458664;28;20057;-61
2021/05/21 06:11:57;;;;;;;13.40;3.42;;;11.80;99.90;;;;;;10458977;28;20125;-61
2021/05/21 06:16:59;;;;;;;18.83;3.22;;;11.90;99.90;;;;;;10458271;28;20045;-60
2021/05/21 06:22:01;;;;;;;11.77;3.20;;;12.10;99.90;;;;;;10458610;28;20073;-62
2021/05/21 06:27:17;;;;;;;16.85;3.50;;;12.10;99.90;;;;;;10458223;28;20044;-60
2021/05/21 06:32:19;;;;;;;14.68;3.13;;;12.20;99.90;;;;;;10457506;28;20477;-60
2021/05/21 06:37:21;;;;;;;18.98;3.90;;;12.20;99.90;;;;;;10458036;28;20041;-60
2021/05/21 06:42:41;;;;;;;13.77;3.83;;;12.20;99.90;;;;;;10457969;28;20076;-60
2021/05/21 06:47:44;;;;;;;12.13;2.72;;;12.20;99.90;;;;;;10457680;28;20119;-60
2021/05/21 06:52:46;;;;;;;17.63;4.10;;;12.20;99.90;;;;;;10457382;28;20041;-61
2021/05/21 06:57:48;;;;;;;13.05;3.47;;;12.40;99.90;;;;;;10456850;28;20041;-61
2021/05/21 07:02:50;;;;;;;14.75;3.53;;;12.40;99.90;;;;;;10456572;28;20400;-60
2021/05/21 07:07:52;;;;;;;17.30;3.42;;;12.40;99.90;;;;;;10456022;28;20041;-60
2021/05/21 07:12:53;;;;;;;16.20;3.58;;;12.50;99.90;;;;;;10456788;28;20049;-60
2021/05/21 07:17:55;;;;;;;21.40;3.90;;;12.70;99.90;;;;;;10457177;28;20037;-60
2021/05/21 07:22:57;;;;;;;13.82;2.35;;;12.80;99.90;;;;;;10456607;28;20049;-61
2021/05/21 07:27:59;;;;;;;11.82;2.70;;;12.80;99.90;;;;;;10455047;28;20040;-60
2021/05/21 07:33:01;;;;;;;14.00;3.60;;;12.70;99.90;;;;;;10456473;28;20049;-61
2021/05/21 07:38:04;;;;;;;13.90;3.63;;;12.80;99.90;;;;;;10455028;28;20051;-60
2021/05/21 07:43:06;;;;;;;15.25;3.60;;;12.80;99.90;;;;;;10455886;28;20045;-61
2021/05/21 07:48:08;;;;;;;13.38;4.35;;;12.80;99.90;;;;;;10456023;28;20477;-63
2021/05/21 07:53:10;;;;;;;6.30;2.80;;;13.20;99.90;;;;;;10455817;28;20473;-60
2021/05/21 07:58:14;;;;;;;13.27;3.47;;;13.50;99.90;;;;;;10455889;28;20114;-59
2021/05/21 08:03:15;;;;;;;11.00;3.10;;;13.70;99.90;;;;;;10455850;28;20120;-60
2021/05/21 08:08:22;;;;;;;10.45;3.17;;;14.00;99.90;;;;;;10455991;28;20040;-60
2021/05/21 08:13:24;;;;;;;7.78;3.15;;;13.80;99.90;;;;;;10455848;28;20067;-60
2021/05/21 08:18:26;;;;;;;8.95;2.80;;;13.60;99.90;;;;;;10462467;28;20044;-62
2021/05/21 08:23:28;;;;;;;9.93;2.55;;;13.70;99.90;;;;;;10463051;28;20045;-60
2021/05/21 08:28:30;;;;;;;6.63;2.28;;;14.00;99.90;;;;;;10462823;28;20048;-57
2021/05/21 08:33:33;;;;;;;8.32;2.67;;;14.40;99.90;;;;;;10462554;28;20056;-58
2021/05/21 08:38:35;;;;;;;7.60;2.25;;;14.50;99.90;;;;;;10462404;28;20087;-58
2021/05/21 08:43:41;;;;;;;7.60;2.30;;;14.80;99.90;;;;;;10462293;28;20041;-58
2021/05/21 08:48:43;;;;;;;11.57;3.10;;;15.40;99.90;;;;;;10462146;28;20056;-58
2021/05/21 08:53:45;;;;;;;9.75;3.17;;;15.10;99.90;;;;;;10462128;28;20051;-58
2021/05/21 08:58:47;;;;;;;10.98;3.10;;;15.20;99.90;;;;;;10461425;28;20037;-58
2021/05/21 09:03:49;;;;;;;13.43;2.80;;;15.30;99.90;;;;;;10461298;28;20041;-58
2021/05/21 09:08:56;;;;;;;13.65;2.47;;;15.10;98.20;;;;;;10461524;28;20045;-58
2021/05/21 09:14:20;;;;;;;13.68;2.70;;;15.10;99.60;;;;;;10461127;28;20043;-58
2021/05/21 09:19:23;;;;;;;7.00;1.98;;;15.50;98.60;;;;;;10461134;28;20071;-58
2021/05/21 09:24:32;;;;;;;16.92;2.33;;;16.10;99.00;;;;;;10460589;28;20469;-58
2021/05/21 09:29:56;;;;;;;12.70;2.50;;;15.70;98.80;;;;;;10460257;28;20484;-59
2021/05/21 09:35:16;;;;;;;12.10;2.90;;;16.20;96.90;;;;;;10460317;28;20059;-61
2021/05/21 09:40:29;;;;;;;15.00;2.97;;;16.30;97.60;;;;;;10460035;28;20048;-58
2021/05/21 09:45:34;;;;;;;9.23;3.08;;;16.70;99.10;;;;;;10459736;28;20045;-59
2021/05/21 09:50:50;;;;;;;14.65;4.57;;;17.10;97.70;;;;;;10459585;28;20045;-58
2021/05/21 09:56:02;;;;;;;9.80;3.35;;;17.20;96.90;;;;;;10459219;28;20059;-58
2021/05/21 10:01:23;;;;;;;13.98;3.75;;;16.40;98.00;;;;;;10459234;28;20140;-59
2021/05/21 10:06:28;;;;;;;10.23;3.13;;;16.30;99.60;;;;;;10458862;28;20052;-57
2021/05/21 10:11:32;;;;;;;13.18;3.65;;;16.10;99.00;;;;;;10459300;28;20128;-61
2021/05/21 10:16:34;;;;;;;8.07;2.70;;;15.90;97.90;;;;;;10459209;28;20057;-62
2021/05/21 10:21:37;;;;;;;11.25;3.33;;;15.90;98.70;;;;;;10459028;28;20040;-61
2021/05/21 10:26:41;;;;;;;11.77;3.15;;;16.40;97.10;;;;;;10458099;28;20073;-60
2021/05/21 10:31:44;;;;;;;9.35;3.15;;;17.10;95.50;;;;;;10457233;28;20053;-64
2021/05/21 10:36:49;;;;;;;7.35;2.65;;;17.20;95.80;;;;;;10440186;28;20044;-60
2021/05/21 10:41:59;;;;;;;11.70;2.60;;;17.40;94.30;;;;;;10457460;28;20044;-60
2021/05/21 10:47:15;;;;;;;11.13;2.80;;;16.90;92.00;;;;;;10457912;28;20045;-60
2021/05/21 10:52:52;;;;;;;8.27;2.53;;;16.90;95.50;;;;;;10457086;28;20119;-61
2021/05/21 10:57:59;;;;;;;11.65;3.03;;;17.00;94.50;;;;;;10457234;28;20127;-60
2021/05/21 11:03:01;;;;;;;12.70;3.00;;;17.00;94.60;;;;;;10456883;28;20045;-61
2021/05/21 11:08:07;;;;;;;8.27;2.10;;;16.60;96.20;;;;;;10456977;28;20055;-62
2021/05/21 11:13:15;;;;;;;6.70;2.60;;;16.70;97.20;;;;;;10439925;28;20120;-62
2021/05/21 11:18:17;;;;;;;10.07;2.60;;;16.80;95.70;;;;;;10456548;28;20037;-62
2021/05/21 11:23:45;;;;;;;7.90;2.22;;;17.70;93.90;;;;;;10456454;28;20362;-60
2021/05/21 11:29:01;;;;;;;11.00;2.90;;;18.30;93.30;;;;;;10458770;28;20041;-60
2021/05/21 11:34:09;;;;;;;5.50;2.38;;;17.80;95.70;;;;;;10456871;28;20052;-62
2021/05/21 11:39:11;;;;;;;10.73;3.17;;;17.30;93.60;;;;;;10456610;28;20048;-61
2021/05/21 11:44:13;;;;;;;12.27;2.85;;;16.50;96.80;;;;;;10456030;28;20048;-60
2021/05/21 11:49:19;;;;;;;19.13;2.92;;;15.60;99.90;;;;;;10456699;28;20045;-62
2021/05/21 11:54:21;;;;;;;10.60;3.08;;;15.20;99.90;;;;;;10464084;28;20435;-60
2021/05/21 11:59:24;;;;;;;8.65;2.40;;;15.30;99.90;;;;;;10464452;28;20055;-60
2021/05/21 12:04:35;;;;;;;12.45;2.65;;;15.60;99.90;;;;;;10463608;28;20041;-61
2021/05/21 12:09:37;;;;;;;9.10;2.50;;;16.00;99.90;;;;;;10464192;28;20053;-60
2021/05/21 12:14:39;;;;;;;11.75;3.28;;;17.10;99.90;;;;;;10463406;28;20535;-60
2021/05/21 12:19:42;;;;;;;9.35;2.83;;;17.80;99.90;;;;;;10463184;28;20045;-63
2021/05/21 12:24:45;;;;;;;8.57;2.78;;;17.80;96.70;;;;;;10463160;28;20068;-60
2021/05/21 12:29:46;;;;;;;11.15;2.78;;;18.00;99.40;;;;;;10462652;28;20049;-61
2021/05/21 12:34:52;;;;;;;11.43;3.58;;;18.50;97.30;;;;;;10478005;28;20412;-60
2021/05/21 12:39:54;;;;;;;11.50;2.55;;;18.30;97.20;;;;;;10462291;28;20400;-61
2021/05/21 12:44:55;;;;;;;9.23;2.65;;;18.30;96.40;;;;;;10461835;28;20504;-61
2021/05/21 12:50:01;;;;;;;11.77;2.78;;;17.70;95.50;;;;;;10462049;28;20045;-63
2021/05/21 12:55:13;;;;;;;9.90;2.42;;;17.50;94.00;;;;;;10461725;28;20491;-61
2021/05/21 13:00:21;;;;;;;8.70;2.83;;;17.30;93.40;;;;;;10461578;28;20055;-60
2021/05/21 13:05:27;;;;;;;10.50;2.97;;;16.70;91.20;;;;;;10461614;28;20069;-61
2021/05/21 13:10:36;;;;;;;12.68;2.22;;;16.80;94.80;;;;;;10461215;28;20481;-60
2021/05/21 13:15:40;;;;;;;10.05;2.60;;;16.50;92.90;;;;;;10461242;28;20040;-61
2021/05/21 13:20:42;;;;;;;10.43;2.15;;;16.50;94.40;;;;;;10460916;28;20128;-61
2021/05/21 13:25:44;;;;;;;18.33;3.10;;;16.20;94.30;;;;;;10459282;28;20362;-61
2021/05/21 13:30:46;;;;;;;12.07;2.22;;;16.30;93.40;;;;;;10460320;28;20051;-59
2021/05/21 13:35:47;;;;;;;12.60;3.03;;;16.70;94.40;;;;;;10459995;28;20128;-58
2021/05/21 13:40:50;;;;;;;21.92;3.42;;;16.40;93.40;;;;;;10460117;28;20045;-58
2021/05/21 13:45:52;;;;;;;12.23;2.67;;;16.10;96.20;;;;;;10460363;28;20124;-60
2021/05/21 13:50:54;;;;;;;12.70;3.28;;;15.90;96.80;;;;;;10459800;28;20131;-61
2021/05/21 13:55:56;;;;;;;19.02;3.92;;;16.00;99.90;;;;;;10458475;28;20051;-60
2021/05/21 14:00:58;;;;;;;12.23;3.08;;;16.00;99.80;;;;;;10459400;28;20044;-61
2021/05/21 14:06:00;;;;;;;13.55;3.72;;;15.80;99.20;;;;;;10459128;28;20377;-61
2021/05/21 14:11:05;;;;;;;10.60;2.00;;;15.30;99.70;;;;;;10459209;28;20067;-61
2021/05/21 14:16:07;;;;;;;12.10;2.50;;;14.90;99.90;;;;;;10457940;28;20052;-62
2021/05/21 14:21:09;;;;;;;11.57;2.40;;;15.10;99.90;;;;;;10458741;28;20047;-59
2021/05/21 14:26:11;;;;;;;8.70;2.63;;;15.90;99.90;;;;;;10458431;28;20120;-63
2021/05/21 14:31:13;;;;;;;11.13;1.88;;;16.50;99.90;;;;;;10458227;28;20500;-60
2021/05/21 14:36:16;;;;;;;7.70;2.35;;;16.90;99.90;;;;;;10472793;28;20489;-61
2021/05/21 14:41:31;;;;;;;6.50;2.15;;;16.90;99.20;;;;;;10457600;28;20469;-61
2021/05/21 14:46:33;;;;;;;5.00;1.27;;;17.30;99.90;;;;;;10457518;28;20044;-59
2021/05/21 14:51:37;;;;;;;7.10;1.83;;;17.30;97.50;;;;;;10457334;28;20495;-59
2021/05/21 14:56:39;;;;;;;8.68;3.08;;;17.60;97.80;;;;;;10473103;28;20045;-59
2021/05/21 15:01:41;;;;;;;11.15;2.20;;;17.80;95.60;;;;;;10472486;28;20047;-57
2021/05/21 15:06:43;;;;;;;13.75;2.15;;;17.90;95.30;;;;;;10457166;28;20047;-59
2021/05/21 15:11:50;;;;;;;11.38;2.65;;;18.20;96.20;;;;;;10457073;28;20048;-58
2021/05/21 15:27:19;;;;;;;8.02;2.38;;;17.50;90.70;;;;;;10468613;28;20036;-59
2021/05/21 15:32:22;;;;;;;6.78;2.40;;;17.80;92.90;;;;;;10470126;28;20048;-58
2021/05/21 15:37:24;;;;;;;10.05;2.67;;;17.90;90.30;;;;;;10470072;28;20127;-58
2021/05/21 15:47:47;;;;;;;9.68;1.98;;;17.90;90.00;;;;;;10483129;28;20045;-58
2021/05/21 15:53:04;;;;;;;6.57;2.30;;;17.60;91.00;;;;;;10469561;28;20472;-59
2021/05/21 15:58:22;;;;;;;7.13;2.05;;;17.10;89.40;;;;;;10469572;28;20128;-61
2021/05/21 16:03:24;;;;;;;9.70;2.58;;;17.10;93.00;;;;;;10469998;28;20056;-63
2021/05/21 16:08:26;;;;;;;7.90;2.22;;;17.30;96.10;;;;;;10469878;28;20044;-62
2021/05/21 16:13:28;;;;;;;11.38;2.05;;;17.40;97.60;;;;;;10469354;28;20041;-61
2021/05/21 16:18:30;;;;;;;9.85;1.95;;;17.40;96.80;;;;;;10469172;28;20041;-60
2021/05/21 16:23:34;;;;;;;6.72;1.65;;;17.00;94.00;;;;;;10469296;28;20062;-60
2021/05/21 16:28:36;;;;;;;8.57;2.10;;;17.00;90.10;;;;;;10469510;28;20102;-61
2021/05/21 16:33:38;;;;;;;6.18;1.77;;;17.00;90.30;;;;;;10469208;28;20048;-63
2021/05/21 16:38:41;;;;;;;15.30;1.83;;;17.10;84.30;;;;;;10462548;28;20465;-60
2021/05/21 16:43:45;;;;;;;8.43;2.38;;;17.20;89.90;;;;;;10462172;28;20043;-60
2021/05/21 16:48:47;;;;;;;9.43;1.95;;;16.90;89.10;;;;;;10460889;28;20049;-61
2021/05/21 16:54:05;;;;;;;8.30;1.90;;;16.80;88.40;;;;;;10461924;28;20120;-60
2021/05/21 16:59:09;;;;;;;13.65;2.40;;;16.60;92.50;;;;;;10461843;28;20120;-60
2021/05/21 17:04:11;;;;;;;12.10;2.15;;;16.20;89.90;;;;;;10461602;28;20111;-61
2021/05/21 17:09:13;;;;;;;11.13;1.75;;;15.60;93.60;;;;;;10461398;28;20049;-60
2021/05/21 17:14:20;;;;;;;7.75;1.48;;;15.40;94.50;;;;;;10461057;28;20492;-61
2021/05/21 17:41:20;;;;;;;5.57;1.13;;;15.70;94.00;;;;;;10459981;28;20036;-60
2021/05/21 18:54:16;;;;;;;7.68;1.70;;;14.60;96.70;;;;;;10457279;28;20397;-61
2021/05/21 19:04:47;;;;;;;9.68;1.85;;;14.60;98.10;;;;;;10457459;28;20041;-60
2021/05/21 19:20:25;;;;;;;7.53;1.70;;;14.40;98.70;;;;;;10456813;28;20045;-61
2021/05/21 19:25:28;;;;;;;5.63;1.40;;;14.10;98.50;;;;;;10456822;28;20125;-60
2021/05/21 19:47:03;;;;;;;3.53;1.30;;;13.60;99.70;;;;;;10456144;28;20511;-63
2021/05/21 20:12:51;;;;;;;9.13;1.27;;;13.00;99.90;;;;;;10474798;28;20060;-59
2021/05/21 20:17:53;;;;;;;9.48;2.08;;;13.00;99.90;;;;;;10463413;28;20481;-59
2021/05/21 20:22:59;;;;;;;7.10;1.60;;;12.90;99.90;;;;;;10463176;28;20037;-61
2021/05/21 20:33:09;;;;;;;5.90;1.80;;;12.70;99.90;;;;;;10462601;28;20140;-60
2021/05/21 20:38:45;;;;;;;7.60;1.45;;;12.60;99.90;;;;;;10462446;28;20473;-60
2021/05/21 20:54:27;;;;;;;7.05;1.70;;;12.40;99.90;;;;;;10461877;28;20045;-60
2021/05/21 21:04:58;;;;;;;4.95;1.45;;;12.30;99.90;;;;;;10461492;28;20389;-60
2021/05/21 21:10:06;;;;;;;8.00;2.77;;;12.30;99.90;;;;;;10461811;28;20041;-59
2021/05/21 21:15:30;;;;;;;8.27;1.85;;;12.30;99.90;;;;;;10475541;28;20049;-62
2021/05/21 22:03:10;;;;;;;5.43;1.40;;;11.70;99.90;;;;;;10459322;28;20048;-60
2021/05/21 22:08:16;;;;;;;3.75;1.67;;;11.80;99.90;;;;;;10459394;28;20047;-60
2021/05/21 22:28:51;;;;;;;2.95;1.45;;;11.60;99.90;;;;;;10458780;28;20469;-59
2021/05/21 22:33:53;;;;;;;11.40;1.63;;;11.60;99.90;;;;;;10457616;28;20053;-59
2021/05/21 22:38:56;;;;;;;6.82;1.80;;;11.60;99.90;;;;;;10456577;28;20045;-61
2021/05/21 22:43:58;;;;;;;3.50;1.60;;;11.50;99.90;;;;;;10457586;28;20503;-61
2021/05/21 22:49:00;;;;;;;4.55;1.63;;;11.60;99.90;;;;;;10457611;28;20075;-61
2021/05/21 22:54:02;;;;;;;4.47;1.60;;;11.40;99.90;;;;;;10457397;28;20037;-60
2021/05/21 22:59:05;;;;;;;4.35;1.60;;;11.50;99.90;;;;;;10457384;28;20041;-59
2021/05/21 23:04:07;;;;;;;8.15;2.05;;;11.30;99.90;;;;;;10456799;28;20091;-60
2021/05/21 23:09:09;;;;;;;4.18;1.55;;;11.30;99.90;;;;;;10457201;28;20124;-59
2021/05/21 23:14:11;;;;;;;6.47;1.80;;;11.30;99.90;;;;;;10456902;28;20048;-60
2021/05/21 23:19:13;;;;;;;3.00;1.90;;;11.20;99.90;;;;;;10456935;28;20051;-60
2021/05/21 23:24:15;;;;;;;9.85;2.25;;;11.20;99.90;;;;;;10456653;28;20400;-60
2021/05/21 23:29:17;;;;;;;6.35;2.88;;;11.20;99.90;;;;;;10457278;28;20053;-59
2021/05/21 23:34:19;;;;;;;5.82;1.65;;;11.20;99.90;;;;;;10456516;28;20063;-59
2021/05/21 23:39:21;;;;;;;4.95;2.08;;;11.20;99.90;;;;;;10456443;28;20051;-61
2021/05/21 23:44:23;;;;;;;2.78;1.35;;;11.00;99.90;;;;;;10456981;28;20043;-60
2021/05/21 23:49:24;;;;;;;5.38;1.67;;;11.00;99.90;;;;;;10464965;28;20056;-59
2021/05/21 23:54:27;;;;;;;2.75;1.52;;;11.00;99.90;;;;;;10464185;28;20041;-59
2021/05/21 23:59:29;;;;;;;5.07;1.55;;;11.00;99.90;;;;;;10463986;28;20052;-60
